createdAt,value
2023-08-14T00:04:01.685Z,101281.81
2023-08-14T00:09:05.319Z,101338.31
2023-08-14T00:14:09.437Z,101332.63
2023-08-14T00:19:12.167Z,101320.97
2023-08-14T00:24:17.152Z,101290.81
2023-08-14T00:29:21.172Z,101324.69
2023-08-14T00:34:24.025Z,101328.59
2023-08-14T00:39:27.730Z,101324.13
2023-08-14T00:44:31.956Z,101320.25
2023-08-14T00:49:35.972Z,101291.53
2023-08-14T00:54:38.717Z,101250.78
2023-08-14T00:59:42.919Z,101261.28
2023-08-14T01:04:45.804Z,101318.44
2023-08-14T01:09:50.197Z,101312.56
2023-08-14T01:15:00.442Z,101302.72
2023-08-14T01:20:05.532Z,101315.00
2023-08-14T01:25:25.236Z,101322.94
2023-08-14T01:30:29.096Z,101309.34
2023-08-14T01:35:38.903Z,101260.41
2023-08-14T01:40:52.283Z,101295.81
2023-08-14T01:45:58.115Z,101294.34
2023-08-14T01:51:02.113Z,101225.66
2023-08-14T01:56:06.348Z,101193.28
2023-08-14T02:01:09.746Z,101274.53
2023-08-14T02:06:12.435Z,101213.81
2023-08-14T02:11:19.473Z,101268.34
2023-08-14T02:16:23.936Z,101256.13
2023-08-14T02:21:26.889Z,101259.31
2023-08-14T02:26:31.278Z,101246.44
2023-08-14T02:31:34.067Z,101259.41
2023-08-14T02:36:36.833Z,101244.75
2023-08-14T02:41:40.901Z,101246.59
2023-08-14T02:46:43.625Z,101249.78
2023-08-14T02:51:46.381Z,101243.06
2023-08-14T02:56:53.443Z,101243.13
2023-08-14T03:01:57.654Z,101205.94
2023-08-14T03:07:00.388Z,101228.00
2023-08-14T03:12:05.091Z,101212.00
2023-08-14T03:17:07.818Z,101229.91
2023-08-14T03:22:10.548Z,101083.81
2023-08-14T03:27:14.680Z,101092.44
2023-08-14T03:32:17.785Z,101076.47
2023-08-14T03:37:21.964Z,101251.50
2023-08-14T03:42:26.077Z,101227.56
2023-08-14T03:47:28.920Z,101211.47
2023-08-14T03:52:33.706Z,101232.03
2023-08-14T03:57:37.716Z,101214.38
2023-08-14T04:02:43.472Z,101207.50
2023-08-14T04:07:46.564Z,101235.84
2023-08-14T04:12:52.023Z,101223.69
2023-08-14T04:17:55.007Z,101227.50
2023-08-14T04:23:00.205Z,101017.47
2023-08-14T04:28:04.693Z,101234.88
2023-08-14T04:33:08.139Z,101243.25
2023-08-14T04:38:12.142Z,101232.44
2023-08-14T04:43:20.854Z,101171.03
2023-08-14T04:48:23.689Z,101230.03
2023-08-14T04:53:26.585Z,101162.63
2023-08-14T04:58:31.201Z,101134.50
2023-08-14T05:03:34.161Z,101219.66
2023-08-14T05:08:37.512Z,101211.53
2023-08-14T05:13:45.367Z,101217.22
2023-08-14T05:18:48.544Z,101193.88
2023-08-14T05:23:52.578Z,101131.78
2023-08-14T05:28:57.140Z,101216.38
2023-08-14T05:34:00.039Z,101221.81
2023-08-14T05:39:06.992Z,101203.88
2023-08-14T05:44:15.071Z,101208.69
2023-08-14T05:49:18.986Z,101146.34
2023-08-14T05:54:21.738Z,101132.19
2023-08-14T05:59:25.859Z,101208.66
2023-08-14T06:04:28.733Z,101210.69
2023-08-14T06:09:33.528Z,101203.69
2023-08-14T06:14:40.169Z,101206.97
2023-08-14T06:19:43.315Z,101177.63
2023-08-14T06:24:46.029Z,101220.81
2023-08-14T06:29:50.334Z,101222.66
2023-08-14T06:34:53.077Z,101178.59
2023-08-14T06:39:56.180Z,101239.56
2023-08-14T06:45:00.295Z,101183.84
2023-08-14T06:50:03.410Z,101253.38
2023-08-14T06:55:06.997Z,101237.44
2023-08-14T07:00:14.863Z,101245.22
2023-08-14T07:05:17.592Z,101194.84
2023-08-14T07:10:20.822Z,101234.34
2023-08-14T07:15:26.015Z,101221.38
2023-08-14T07:20:28.860Z,101230.69
2023-08-14T07:25:32.501Z,101080.75
2023-08-14T07:30:36.707Z,101216.97
2023-08-14T07:35:39.996Z,101209.91
2023-08-14T07:40:42.677Z,101208.09
2023-08-14T07:45:46.826Z,101181.97
2023-08-14T07:50:54.228Z,101219.25
2023-08-14T07:56:00.065Z,101204.13
2023-08-14T08:01:04.157Z,101214.78
2023-08-14T08:06:07.129Z,101177.97
2023-08-14T08:11:09.798Z,101209.22
2023-08-14T08:16:13.802Z,101225.09
2023-08-14T08:21:16.496Z,101209.94
2023-08-14T08:26:19.199Z,101231.22
2023-08-14T08:31:23.864Z,101194.78
2023-08-14T08:36:26.910Z,101178.56
2023-08-14T08:41:33.434Z,101253.00
2023-08-14T08:46:39.663Z,101244.91
2023-08-14T08:51:44.119Z,101078.28
2023-08-14T08:56:49.044Z,101228.41
2023-08-14T09:01:55.944Z,101208.28
2023-08-14T09:07:01.198Z,101188.50
2023-08-14T09:12:04.445Z,101215.75
2023-08-14T09:17:11.783Z,101088.31
2023-08-14T09:22:15.796Z,101206.78
2023-08-14T09:27:21.095Z,101160.84
2023-08-14T09:32:26.780Z,101129.38
2023-08-14T09:37:30.519Z,101214.41
2023-08-14T09:42:33.604Z,101171.22
2023-08-14T09:47:38.845Z,101201.34
2023-08-14T09:52:46.399Z,101076.91
2023-08-14T09:57:50.967Z,101064.00
2023-08-14T10:02:59.762Z,101144.34
2023-08-14T10:08:09.145Z,101178.31
2023-08-14T10:13:12.769Z,101147.44
2023-08-14T10:18:22.039Z,101170.53
2023-08-14T10:23:27.153Z,101156.03
2023-08-14T10:28:30.425Z,101158.78
2023-08-14T10:33:35.430Z,101127.75
2023-08-14T10:38:43.446Z,101117.50
2023-08-14T10:43:51.473Z,101146.25
2023-08-14T10:48:55.786Z,101031.34
2023-08-14T10:54:09.403Z,101159.22
2023-08-14T10:59:24.023Z,101159.50
2023-08-14T11:04:29.302Z,101154.94
2023-08-14T11:09:34.471Z,101139.38
2023-08-14T11:14:38.716Z,101149.06
2023-08-14T11:19:42.686Z,101137.59
2023-08-14T11:24:45.489Z,101143.84
2023-08-14T11:29:53.483Z,101151.59
2023-08-14T11:34:58.852Z,101144.50
2023-08-14T11:40:05.768Z,101126.97
2023-08-14T11:45:09.284Z,101140.44
2023-08-14T11:50:13.309Z,101146.78
2023-08-14T11:55:16.093Z,101150.41
2023-08-14T12:00:27.069Z,101152.09
2023-08-14T12:05:34.966Z,101099.03
2023-08-14T12:15:54.509Z,101125.25
2023-08-14T12:20:58.640Z,101137.66
2023-08-14T12:26:01.712Z,101132.81
2023-08-14T12:31:06.107Z,101129.16
2023-08-14T12:36:11.233Z,101122.88
2023-08-14T12:41:13.882Z,101101.53
2023-08-14T12:46:16.833Z,101096.94
2023-08-14T12:51:21.096Z,101072.31
2023-08-14T12:56:24.174Z,101071.03
2023-08-14T13:01:27.663Z,101063.53
2023-08-14T13:06:33.031Z,101057.16
2023-08-14T13:11:36.110Z,101049.72
2023-08-14T13:16:39.096Z,101030.94
2023-08-14T13:21:43.581Z,101021.22
2023-08-14T13:26:46.784Z,100964.94
2023-08-14T13:31:49.770Z,100997.28
2023-08-14T13:36:54.040Z,100994.69
2023-08-14T13:41:56.940Z,100994.38
2023-08-14T13:47:15.390Z,100972.06
2023-08-14T13:52:21.609Z,100988.38
2023-08-14T13:57:24.656Z,100962.06
2023-08-14T14:08:01.601Z,100982.81
2023-08-14T14:13:05.506Z,100975.59
2023-08-14T14:18:08.586Z,100966.25
2023-08-14T14:23:13.651Z,100956.09
2023-08-14T14:28:16.508Z,100953.94
2023-08-14T14:33:19.105Z,100941.56
2023-08-14T14:43:55.583Z,100958.84
2023-08-14T14:48:58.257Z,100955.88
2023-08-14T14:54:02.208Z,100940.72
2023-08-14T14:59:04.876Z,100941.53
2023-08-14T15:04:07.711Z,100948.88
2023-08-14T15:09:11.778Z,100956.28
2023-08-14T15:14:14.958Z,100951.50
2023-08-14T15:19:18.164Z,100905.59
2023-08-14T15:24:22.158Z,100974.63
2023-08-14T15:29:24.904Z,100963.53
2023-08-14T15:34:27.714Z,100967.03
2023-08-14T15:39:32.214Z,100963.53
2023-08-14T15:44:34.874Z,100958.63
2023-08-14T15:49:37.532Z,100960.63
2023-08-14T15:54:53.191Z,100957.22
2023-08-14T15:59:56.792Z,100957.59
2023-08-14T16:04:59.443Z,100967.63
2023-08-14T16:10:04.005Z,100963.00
2023-08-14T16:15:08.323Z,100952.00
2023-08-14T16:20:13.228Z,100901.66
2023-08-14T16:25:17.271Z,100958.06
2023-08-14T16:30:19.917Z,100953.81
2023-08-14T16:35:22.541Z,100953.56
2023-08-14T16:40:26.739Z,100931.34
2023-08-14T16:45:29.377Z,100947.69
2023-08-14T16:50:32.288Z,100947.03
2023-08-14T16:55:36.286Z,100957.81
2023-08-14T17:00:39.696Z,100956.88
2023-08-14T17:05:42.351Z,100951.56
2023-08-14T17:10:48.733Z,100955.31
2023-08-14T17:15:51.737Z,100959.06
2023-08-14T17:20:54.601Z,100956.66
2023-08-14T17:26:00.947Z,100954.31
2023-08-14T17:31:03.827Z,100951.09
2023-08-14T17:36:06.533Z,100946.47
2023-08-14T17:41:12.203Z,100942.81
2023-08-14T17:46:15.018Z,100940.88
2023-08-14T17:51:17.628Z,100936.84
2023-08-14T17:56:22.137Z,100934.63
2023-08-14T18:01:24.939Z,100935.25
2023-08-14T18:06:27.619Z,100939.47
2023-08-14T18:11:31.623Z,100920.53
2023-08-14T18:16:34.414Z,100869.56
2023-08-14T18:21:37.150Z,100934.34
2023-08-14T18:26:41.662Z,100938.44
2023-08-14T18:31:44.444Z,100946.09
2023-08-14T18:36:47.379Z,100945.63
2023-08-14T18:41:51.336Z,100939.28
2023-08-14T18:46:54.156Z,100933.78
2023-08-14T18:51:56.816Z,100934.00
2023-08-14T18:57:00.852Z,100943.88
2023-08-14T19:02:03.572Z,100946.31
2023-08-14T19:07:06.371Z,100943.28
2023-08-14T19:12:10.874Z,100954.50
2023-08-14T19:17:22.640Z,100946.16
2023-08-14T19:22:25.953Z,100971.31
2023-08-14T19:27:30.981Z,100975.03
2023-08-14T19:32:33.608Z,100986.06
2023-08-14T19:37:36.241Z,100985.22
2023-08-14T19:42:42.830Z,100991.25
2023-08-14T19:47:45.595Z,100985.84
2023-08-14T19:52:48.331Z,100973.75
2023-08-14T19:57:52.475Z,100979.81
2023-08-14T20:02:55.126Z,100974.75
2023-08-14T20:07:57.943Z,100964.13
2023-08-14T20:13:01.895Z,100979.31
2023-08-14T20:18:05.398Z,100971.59
2023-08-14T20:23:08.321Z,100979.84
2023-08-14T20:28:12.877Z,100981.09
2023-08-14T20:33:15.913Z,100977.69
2023-08-14T20:38:19.049Z,100975.53
2023-08-14T20:43:23.062Z,100974.41
2023-08-14T20:48:25.676Z,100985.91
2023-08-14T20:53:28.361Z,100991.47
2023-08-14T20:58:32.371Z,101006.53
2023-08-14T21:03:35.071Z,101010.22
2023-08-14T21:08:38.363Z,101012.06
2023-08-14T21:13:42.318Z,101004.16
2023-08-14T21:18:45.966Z,100998.06
2023-08-14T21:23:48.650Z,100969.56
2023-08-14T21:28:52.590Z,100987.63
2023-08-14T21:33:55.213Z,100989.03
2023-08-14T21:38:57.825Z,100996.81
2023-08-14T21:44:01.804Z,100990.25
2023-08-14T21:49:04.847Z,101001.06
2023-08-14T21:54:08.387Z,101012.06
2023-08-14T21:59:12.373Z,101014.28
2023-08-14T22:04:15.462Z,101016.47
2023-08-14T22:09:18.142Z,101020.38
2023-08-14T22:14:22.295Z,101028.34
2023-08-14T22:19:24.907Z,101036.09
2023-08-14T22:24:39.769Z,101027.56
2023-08-14T22:29:44.990Z,101029.13
2023-08-14T22:34:47.585Z,101025.41
2023-08-14T22:39:50.411Z,101024.75
2023-08-14T22:44:54.362Z,101031.97
2023-08-14T22:49:56.968Z,101026.41
2023-08-14T22:54:59.576Z,101024.38
2023-08-14T23:00:04.967Z,101028.28
2023-08-14T23:05:08.727Z,101020.72
2023-08-14T23:10:11.533Z,101022.06
2023-08-14T23:15:15.499Z,101013.16
2023-08-14T23:20:18.235Z,101017.38
2023-08-14T23:25:20.890Z,101026.66
2023-08-14T23:30:24.864Z,101028.53
2023-08-14T23:35:27.537Z,100961.31
2023-08-14T23:40:30.126Z,101018.41
2023-08-14T23:45:34.081Z,101009.81
2023-08-14T23:50:36.674Z,101014.72
2023-08-14T23:55:40.413Z,100963.66
